Time;durP1;ratioP1;P1;durP2;ratioP2;P2;SDS_P1;SDS_P2;PMS_P1;PMS_P2;Temp;Humidity;BMP_temperature;BMP_pressure;BME280_temperature;BME280_humidity;BME280_pressure;Samples;Min_cycle;Max_cycle;Signal;HPM_P1;HPM_P2
2022/02/14 00:01:57;;;;;;;9.27;6.17;;;;;;;6.24;46.70;97436.31;8330827;28;20282;-68
2022/02/14 00:06:00;;;;;;;8.53;6.07;;;;;;;6.22;46.63;97432.97;8346019;28;20232;-68
2022/02/14 00:10:06;;;;;;;8.60;5.80;;;;;;;6.03;47.29;97433.59;8348883;28;20232;-68
2022/02/14 00:14:09;;;;;;;9.97;5.63;;;;;;;6.24;46.62;97432.03;8348856;28;20235;-68
2022/02/14 00:18:12;;;;;;;7.90;5.40;;;;;;;6.13;46.82;97426.44;8348141;28;20453;-68
2022/02/14 00:22:17;;;;;;;9.93;5.77;;;;;;;6.54;45.28;97426.66;8348332;28;20232;-68
2022/02/14 00:26:22;;;;;;;7.47;5.67;;;;;;;6.42;45.53;97422.81;8347307;28;20236;-68
2022/02/14 00:30:25;;;;;;;9.80;6.13;;;;;;;5.99;46.07;97405.50;8347946;28;20240;-68
2022/02/14 00:34:28;;;;;;;9.97;5.73;;;;;;;6.13;45.60;97410.16;8348053;28;20236;-68
2022/02/14 00:38:30;;;;;;;9.87;6.40;;;;;;;6.01;45.86;97401.97;8348040;28;20232;-68
2022/02/14 00:42:35;;;;;;;8.10;5.60;;;;;;;5.93;46.47;97403.13;8347564;28;20235;-68
2022/02/14 00:46:38;;;;;;;7.97;5.60;;;;;;;5.60;46.64;97399.06;8347907;28;20251;-68
2022/02/14 00:50:41;;;;;;;8.43;5.50;;;;;;;6.05;45.76;97395.00;8347665;28;20251;-68
2022/02/14 00:54:44;;;;;;;8.10;5.10;;;;;;;5.60;47.11;97390.53;8347699;28;20235;-68
2022/02/14 00:58:49;;;;;;;6.67;5.20;;;;;;;6.17;45.72;97392.00;8347571;28;20585;-68
2022/02/14 01:02:52;;;;;;;9.27;5.17;;;;;;;6.14;45.60;97384.41;8347779;28;20420;-68
2022/02/14 01:06:55;;;;;;;8.23;5.13;;;;;;;5.63;46.68;97382.72;8347509;28;20425;-68
2022/02/14 01:10:58;;;;;;;7.20;5.07;;;;;;;5.34;47.37;97386.25;8347722;28;20542;-68
2022/02/14 01:15:05;;;;;;;7.03;5.33;;;;;;;5.66;46.48;97380.06;8347773;28;20235;-68
2022/02/14 01:19:08;;;;;;;7.17;5.17;;;;;;;5.64;46.73;97382.66;8347347;28;20447;-68
2022/02/14 01:23:11;;;;;;;8.10;5.27;;;;;;;5.77;46.56;97366.81;8347176;28;20228;-68
2022/02/14 01:27:14;;;;;;;6.83;4.97;;;;;;;5.92;45.80;97365.44;8347440;28;20527;-67
2022/02/14 01:31:19;;;;;;;6.30;4.97;;;;;;;5.63;46.75;97359.59;8347555;28;20543;-67
2022/02/14 01:35:22;;;;;;;10.10;5.17;;;;;;;5.34;47.31;97358.84;8347107;28;20232;-67
2022/02/14 01:39:25;;;;;;;8.13;5.10;;;;;;;5.49;46.62;97355.75;8352409;28;20247;-67
2022/02/14 01:43:28;;;;;;;8.93;5.20;;;;;;;5.62;46.44;97343.34;8353943;28;20232;-68
2022/02/14 01:47:33;;;;;;;8.87;4.70;;;;;;;5.29;47.50;97341.03;8355220;28;20413;-68
2022/02/14 01:51:36;;;;;;;5.33;4.57;;;;;;;5.49;47.60;97331.81;8354680;28;20235;-68
2022/02/14 01:55:38;;;;;;;7.20;5.10;;;;;;;5.45;47.25;97327.69;8354756;28;20201;-68
2022/02/14 01:59:43;;;;;;;7.00;5.10;;;;;;;5.29;47.09;97329.91;8353737;28;20235;-68
2022/02/14 02:03:48;;;;;;;9.07;4.90;;;;;;;5.70;46.48;97322.53;8352395;28;20232;-68
2022/02/14 02:07:52;;;;;;;6.40;4.70;;;;;;;5.56;46.91;97314.44;8352401;28;20250;-68
2022/02/14 02:16:15;;;;;;;7.30;4.57;;;;;;;5.18;47.27;97301.19;8352272;28;20413;-67
2022/02/14 02:20:22;;;;;;;6.60;4.73;;;;;;;5.44;46.93;97290.88;8352017;28;20464;-68
2022/02/14 02:24:25;;;;;;;8.60;4.60;;;;;;;5.19;47.65;97300.31;8351986;28;20593;-68
2022/02/14 02:28:30;;;;;;;5.90;4.40;;;;;;;5.48;46.56;97284.75;8351968;28;20246;-68
2022/02/14 02:32:33;;;;;;;7.13;4.60;;;;;;;5.46;46.88;97281.41;8351418;28;20421;-68
2022/02/14 02:36:47;;;;;;;8.17;5.10;;;;;;;5.49;46.96;97276.16;8351520;28;20239;-69
2022/02/14 02:40:50;;;;;;;7.50;4.50;;;;;;;5.31;47.06;97271.63;8351383;28;20236;-68
2022/02/14 02:44:55;;;;;;;8.07;4.53;;;;;;;4.98;48.06;97271.06;8351194;28;20236;-68
2022/02/14 02:49:09;;;;;;;6.23;4.80;;;;;;;5.27;47.55;97263.22;8350221;28;20240;-68
2022/02/14 02:53:12;;;;;;;6.73;4.53;;;;;;;5.35;47.27;97262.09;8351198;28;20236;-68
2022/02/14 02:57:16;;;;;;;5.23;4.73;;;;;;;5.44;46.86;97252.34;8351044;28;20228;-68
2022/02/14 03:01:21;;;;;;;8.83;4.80;;;;;;;5.45;46.71;97248.06;8350704;28;20251;-70
2022/02/14 03:05:25;;;;;;;10.87;6.60;;;;;;;5.17;47.70;97251.56;8350517;28;20232;-69
2022/02/14 03:09:28;;;;;;;8.00;5.47;;;;;;;5.14;47.82;97243.13;8350268;28;20228;-69
2022/02/14 03:13:31;;;;;;;6.70;4.77;;;;;;;5.29;47.35;97247.75;8349915;28;20235;-69
2022/02/14 03:17:36;;;;;;;6.07;4.47;;;;;;;5.32;46.99;97239.13;8350045;28;20238;-68
2022/02/14 03:21:39;;;;;;;7.13;4.30;;;;;;;5.12;47.62;97227.78;8350326;28;20236;-68
2022/02/14 03:25:42;;;;;;;6.43;4.40;;;;;;;5.10;47.69;97229.56;8349862;28;20263;-68
2022/02/14 03:29:45;;;;;;;5.87;4.00;;;;;;;5.33;46.99;97227.94;8349977;28;20535;-69
2022/02/14 03:33:50;;;;;;;5.90;4.20;;;;;;;5.44;46.69;97223.28;8349808;28;20232;-69
2022/02/14 03:37:53;;;;;;;6.53;4.17;;;;;;;5.44;47.01;97208.69;8349905;28;20524;-69
2022/02/14 03:41:56;;;;;;;5.03;3.83;;;;;;;5.05;47.78;97214.34;8349398;28;20420;-69
2022/02/14 03:45:59;;;;;;;6.40;4.10;;;;;;;5.54;46.63;97200.66;8349478;28;20239;-69
2022/02/14 03:50:04;;;;;;;7.13;3.87;;;;;;;5.23;46.53;97202.59;8349203;28;20240;-68
2022/02/14 03:54:07;;;;;;;5.23;3.90;;;;;;;5.17;46.75;97200.25;8349184;28;20241;-68
2022/02/14 03:58:10;;;;;;;8.13;4.30;;;;;;;5.23;46.67;97199.19;8349161;28;20228;-68
2022/02/14 04:02:13;;;;;;;9.83;4.60;;;;;;;4.85;47.73;97193.66;8348630;28;20231;-68
2022/02/14 04:06:17;;;;;;;8.27;4.03;;;;;;;5.27;47.11;97193.91;8348943;28;20550;-68
2022/02/14 04:10:20;;;;;;;6.57;3.87;;;;;;;5.36;46.32;97191.91;8348616;28;20427;-68
2022/02/14 04:14:23;;;;;;;4.97;3.80;;;;;;;5.15;47.07;97186.63;8348783;28;20239;-68
2022/02/14 04:18:27;;;;;;;6.83;3.97;;;;;;;5.31;46.44;97186.91;8348533;28;20262;-68
2022/02/14 04:22:31;;;;;;;5.83;3.83;;;;;;;5.14;47.09;97182.41;8348483;28;20236;-68
2022/02/14 04:26:34;;;;;;;7.30;4.33;;;;;;;5.58;45.92;97174.81;8347812;28;20550;-69
2022/02/14 04:30:37;;;;;;;6.90;4.07;;;;;;;5.32;46.12;97169.78;8348433;28;20259;-69
2022/02/14 04:34:42;;;;;;;6.63;3.80;;;;;;;5.31;46.20;97173.25;8348347;28;20239;-68
2022/02/14 04:38:47;;;;;;;5.27;3.83;;;;;;;5.42;45.98;97164.25;8348737;28;20309;-68
2022/02/14 04:42:50;;;;;;;4.77;3.53;;;;;;;5.39;46.23;97166.13;8348331;28;20236;-68
2022/02/14 04:46:53;;;;;;;5.87;3.40;;;;;;;5.39;45.84;97164.38;8348161;28;20232;-68
2022/02/14 04:50:56;;;;;;;5.13;3.50;;;;;;;5.39;46.36;97163.56;8347916;28;20232;-68
2022/02/14 04:55:00;;;;;;;5.30;3.77;;;;;;;5.34;46.50;97165.44;8347835;28;20227;-68
2022/02/14 04:59:04;;;;;;;7.33;3.60;;;;;;;5.21;46.65;97155.59;8347635;28;20232;-68
2022/02/14 05:03:07;;;;;;;6.10;4.10;;;;;;;5.44;45.98;97166.78;8347339;28;20427;-68
2022/02/14 05:07:10;;;;;;;5.80;3.93;;;;;;;5.52;45.92;97159.66;8347440;28;20236;-68
2022/02/14 05:11:15;;;;;;;5.60;4.03;;;;;;;5.70;45.21;97170.94;8347577;28;20232;-68
2022/02/14 05:15:18;;;;;;;6.90;4.00;;;;;;;5.28;46.04;97153.66;8354185;28;20228;-68
2022/02/14 05:19:21;;;;;;;4.57;3.53;;;;;;;5.67;45.02;97156.50;8353974;28;20235;-68
2022/02/14 05:23:24;;;;;;;5.60;3.80;;;;;;;5.34;45.27;97152.59;8353975;28;20236;-68
2022/02/14 05:27:29;;;;;;;6.07;3.27;;;;;;;5.29;45.70;97150.19;8353517;28;20515;-68
2022/02/14 05:31:32;;;;;;;5.50;3.70;;;;;;;5.61;44.94;97156.72;8353108;28;20232;-69
2022/02/14 05:35:34;;;;;;;5.03;3.37;;;;;;;5.40;45.60;97148.06;8353344;28;20239;-68
2022/02/14 05:39:37;;;;;;;9.80;5.30;;;;;;;5.06;45.56;97151.88;8353306;28;20240;-68
2022/02/14 05:43:42;;;;;;;9.07;3.83;;;;;;;5.47;45.01;97156.41;8353182;28;20236;-68
2022/02/14 05:47:45;;;;;;;7.17;4.50;;;;;;;5.65;44.79;97160.00;8353034;28;20240;-68
2022/02/14 05:51:50;;;;;;;7.97;4.47;;;;;;;5.53;44.99;97155.34;8352997;28;20299;-68
2022/02/14 05:55:53;;;;;;;5.70;3.97;;;;;;;5.48;44.68;97158.06;8352972;28;20249;-68
2022/02/14 05:59:58;;;;;;;5.97;4.13;;;;;;;5.37;45.07;97157.59;8353077;28;20228;-68
2022/02/14 06:04:01;;;;;;;7.40;3.90;;;;;;;5.39;45.27;97161.00;8352752;28;20234;-68
2022/02/14 06:08:04;;;;;;;8.37;4.10;;;;;;;5.41;45.49;97157.47;8351935;28;20224;-68
2022/02/14 06:12:08;;;;;;;9.33;3.80;;;;;;;5.14;45.57;97151.59;8352476;28;20247;-68
2022/02/14 06:16:13;;;;;;;7.70;3.73;;;;;;;5.43;44.78;97163.38;8352771;28;20239;-68
2022/02/14 06:20:16;;;;;;;5.97;3.77;;;;;;;5.52;44.61;97164.78;8351745;28;20228;-68
2022/02/14 06:24:19;;;;;;;6.20;4.00;;;;;;;5.23;45.19;97161.50;8350630;28;20232;-68
2022/02/14 06:28:22;;;;;;;7.50;4.30;;;;;;;5.20;44.95;97153.94;8351414;28;20255;-68
2022/02/14 06:32:26;;;;;;;6.33;4.20;;;;;;;5.40;45.09;97162.66;8351481;28;20252;-68
2022/02/14 06:36:30;;;;;;;4.77;3.77;;;;;;;5.43;44.77;97165.94;8351367;28;20554;-68
2022/02/14 06:40:33;;;;;;;7.63;4.13;;;;;;;5.49;44.69;97162.31;8350917;28;20511;-69
2022/02/14 06:44:36;;;;;;;6.30;4.23;;;;;;;5.43;44.65;97162.53;8350889;28;20243;-69
2022/02/14 06:48:40;;;;;;;7.63;4.40;;;;;;;5.27;44.84;97170.81;8350892;28;20239;-68
2022/02/14 06:52:43;;;;;;;8.40;3.97;;;;;;;5.15;45.16;97163.53;8350884;28;20240;-68
2022/02/14 06:56:46;;;;;;;5.03;3.83;;;;;;;5.45;44.41;97171.84;8350831;28;20239;-68
2022/02/14 07:00:49;;;;;;;5.97;4.10;;;;;;;5.47;44.67;97171.81;8350548;28;20235;-68
2022/02/14 07:04:54;;;;;;;8.00;4.13;;;;;;;5.26;44.30;97166.53;8350986;28;20234;-68
2022/02/14 07:08:57;;;;;;;9.07;4.30;;;;;;;5.40;44.39;97170.34;8350517;28;20243;-69
2022/02/14 07:13:00;;;;;;;6.43;3.90;;;;;;;5.34;44.24;97178.28;8350420;28;20243;-68
2022/02/14 07:17:03;;;;;;;8.13;4.20;;;;;;;5.79;43.54;97175.75;8350484;28;20232;-68
2022/02/14 07:21:08;;;;;;;9.43;3.93;;;;;;;5.35;43.96;97169.66;8350334;28;20228;-68
2022/02/14 07:25:12;;;;;;;4.83;3.53;;;;;;;5.91;43.41;97179.59;8349718;28;20236;-68
2022/02/14 07:29:15;;;;;;;7.30;3.80;;;;;;;5.72;43.03;97182.00;8349795;28;20227;-69
2022/02/14 07:33:19;;;;;;;6.80;4.03;;;;;;;5.90;42.70;97183.03;8350012;28;20232;-69
2022/02/14 07:37:23;;;;;;;10.33;3.83;;;;;;;5.97;42.68;97175.97;8349488;28;20227;-69
2022/02/14 07:41:26;;;;;;;8.03;4.30;;;;;;;5.80;42.94;97181.72;8349404;28;20243;-69
2022/02/14 07:45:29;;;;;;;9.07;4.30;;;;;;;5.95;42.56;97177.72;8349133;28;20255;-68
2022/02/14 07:49:32;;;;;;;6.77;4.53;;;;;;;6.01;42.14;97183.50;8348800;28;20424;-69
2022/02/14 07:53:36;;;;;;;9.97;4.10;;;;;;;5.98;42.50;97182.81;8348977;28;20543;-68
2022/02/14 07:57:39;;;;;;;7.83;4.00;;;;;;;6.27;41.47;97171.38;8348630;28;20239;-68
2022/02/14 08:01:43;;;;;;;10.03;4.50;;;;;;;5.48;43.16;97170.91;8348572;28;20243;-68
2022/02/14 08:05:47;;;;;;;5.47;3.80;;;;;;;6.16;41.63;97171.78;8348519;28;20285;-68
2022/02/14 08:09:52;;;;;;;9.67;4.67;;;;;;;6.50;40.85;97170.44;8348660;28;20231;-68
2022/02/14 08:13:55;;;;;;;9.07;4.00;;;;;;;6.97;40.27;97156.50;8348529;28;20411;-68
2022/02/14 08:18:02;;;;;;;7.43;3.50;;;;;;;6.70;39.83;97156.78;8348707;28;20227;-68
2022/02/14 08:22:05;;;;;;;5.33;4.03;;;;;;;6.48;39.92;97154.25;8348441;28;20239;-68
2022/02/14 08:26:09;;;;;;;10.07;4.10;;;;;;;7.48;39.80;97157.69;8348303;28;20565;-66
2022/02/14 08:30:13;;;;;;;6.13;3.83;;;;;;;7.64;37.87;97153.53;8348098;28;20235;-66
2022/02/14 08:34:16;;;;;;;6.07;3.60;;;;;;;8.60;36.05;97149.03;8347861;28;20228;-65
2022/02/14 08:38:20;;;;;;;6.90;4.10;;;;;;;8.91;36.51;97152.66;8348008;28;20228;-68
2022/02/14 08:42:25;;;;;;;8.00;4.60;;;;;;;8.32;36.42;97152.94;8347983;28;20232;-69
2022/02/14 08:46:28;;;;;;;6.50;3.90;;;;;;;8.53;36.39;97151.09;8346779;28;20236;-68
2022/02/14 08:50:31;;;;;;;6.60;4.20;;;;;;;8.44;36.26;97153.31;8326846;28;20234;-69
2022/02/14 08:54:34;;;;;;;5.83;3.93;;;;;;;8.11;36.38;97148.78;8347680;28;20587;-65
2022/02/14 08:58:40;;;;;;;7.20;3.90;;;;;;;8.31;36.21;97143.53;8347589;28;20240;-64
2022/02/14 09:02:43;;;;;;;4.77;3.60;;;;;;;9.13;35.24;97135.16;8347449;28;20243;-65
2022/02/14 09:06:51;;;;;;;7.33;4.10;;;;;;;9.18;34.58;97132.34;8347317;28;20239;-65
2022/02/14 09:11:05;;;;;;;10.30;3.90;;;;;;;9.59;33.88;97137.06;8347708;28;20239;-65
2022/02/14 09:15:10;;;;;;;9.87;3.80;;;;;;;10.13;32.56;97135.00;8347030;28;20235;-65
2022/02/14 09:19:13;;;;;;;8.43;3.83;;;;;;;11.34;30.88;97128.88;8347044;28;20290;-65
2022/02/14 09:23:16;;;;;;;6.17;3.63;;;;;;;11.28;30.46;97129.25;8347319;28;20232;-65
2022/02/14 09:27:19;;;;;;;6.27;3.83;;;;;;;11.52;30.83;97124.34;8347415;28;20543;-65
2022/02/14 09:31:23;;;;;;;7.37;3.47;;;;;;;11.79;29.91;97120.97;8347050;28;20234;-65
2022/02/14 09:35:29;;;;;;;4.57;3.57;;;;;;;11.86;30.05;97117.91;8346574;28;20232;-65
2022/02/14 09:39:32;;;;;;;4.87;3.47;;;;;;;12.59;28.68;97111.50;8346288;28;20228;-66
2022/02/14 09:43:35;;;;;;;5.57;3.33;;;;;;;11.54;29.95;97112.13;8346473;28;20240;-65
2022/02/14 09:47:40;;;;;;;5.03;3.40;;;;;;;10.82;31.27;97103.53;8346394;28;20256;-65
2022/02/14 09:51:43;;;;;;;8.80;3.60;;;;;;;11.08;31.07;97109.72;8346345;28;20232;-65
2022/02/14 09:55:47;;;;;;;6.47;3.67;;;;;;;10.86;31.74;97105.81;8346611;28;20240;-65
2022/02/14 09:59:50;;;;;;;4.63;3.47;;;;;;;10.76;31.58;97107.31;8350753;28;20342;-65
2022/02/14 10:03:56;;;;;;;5.47;3.30;;;;;;;10.31;32.33;97103.84;8352400;28;20411;-65
2022/02/14 10:08:00;;;;;;;6.50;3.73;;;;;;;10.36;32.75;97102.66;8352526;28;20228;-65
2022/02/14 10:12:05;;;;;;;6.47;3.67;;;;;;;10.83;32.67;97095.63;8352499;28;20413;-65
2022/02/14 10:16:10;;;;;;;5.23;3.53;;;;;;;11.01;31.15;97100.66;8352398;28;20235;-65
2022/02/14 10:20:16;;;;;;;6.87;3.40;;;;;;;12.09;30.06;97102.66;8352385;28;20228;-65
2022/02/14 10:24:19;;;;;;;4.53;3.33;;;;;;;12.85;28.46;97094.19;8352162;28;20243;-65
2022/02/14 10:28:25;;;;;;;4.53;3.23;;;;;;;13.02;29.16;97098.25;8351913;28;20539;-64
2022/02/14 10:32:28;;;;;;;8.13;3.37;;;;;;;12.63;28.53;97097.38;8352357;28;20519;-64
2022/02/14 10:36:34;;;;;;;7.73;3.70;;;;;;;12.92;28.62;97097.19;8343506;28;20250;-65
2022/02/14 10:40:39;;;;;;;10.17;3.67;;;;;;;12.71;29.26;97100.28;8351525;28;20238;-65
2022/02/14 10:49:04;;;;;;;7.83;3.27;;;;;;;13.50;28.17;97089.78;8351602;28;20237;-64
2022/02/14 10:53:28;;;;;;;10.93;4.07;;;;;;;12.95;28.15;97085.78;8351201;28;20231;-64
2022/02/14 10:57:33;;;;;;;6.43;3.30;;;;;;;13.86;27.45;97078.53;8350572;28;20231;-65
2022/02/14 11:01:36;;;;;;;6.33;3.30;;;;;;;13.44;28.03;97074.59;8350919;28;20421;-66
2022/02/14 11:05:39;;;;;;;4.83;3.63;;;;;;;13.18;27.49;97066.81;8350858;28;20236;-65
2022/02/14 11:09:44;;;;;;;6.73;3.37;;;;;;;12.55;28.53;97065.91;8349760;28;20441;-65
2022/02/14 11:13:48;;;;;;;5.63;3.20;;;;;;;13.34;27.44;97065.78;8350607;28;20432;-65
2022/02/14 11:18:06;;;;;;;6.27;3.63;;;;;;;13.29;27.74;97056.50;8350243;28;20367;-64
2022/02/14 11:22:13;;;;;;;6.13;3.20;;;;;;;13.59;27.46;97062.28;8350302;28;20239;-64
2022/02/14 11:26:24;;;;;;;6.27;3.43;;;;;;;13.24;27.85;97060.38;8350032;28;20236;-64
2022/02/14 11:30:29;;;;;;;5.57;3.20;;;;;;;12.68;27.97;97055.53;8350062;28;20543;-65
2022/02/14 11:34:51;;;;;;;5.50;3.60;;;;;;;13.21;27.60;97047.56;8349392;28;20260;-65
2022/02/14 11:38:56;;;;;;;5.70;3.60;;;;;;;12.54;28.99;97038.25;8349946;28;20228;-65
2022/02/14 11:43:23;;;;;;;5.70;3.20;;;;;;;12.09;28.91;97028.22;8349582;28;20630;-65
2022/02/14 11:47:33;;;;;;;7.27;3.17;;;;;;;12.90;28.43;97032.31;8349210;28;20305;-65
2022/02/14 11:51:37;;;;;;;7.10;3.20;;;;;;;12.82;28.79;97034.63;8348982;28;20228;-65
2022/02/14 11:55:40;;;;;;;5.17;3.50;;;;;;;12.33;29.45;97020.56;8349364;28;20565;-65
2022/02/14 11:59:45;;;;;;;5.13;3.33;;;;;;;12.97;28.73;97018.94;8348804;28;20247;-65
2022/02/14 12:03:51;;;;;;;5.83;3.90;;;;;;;12.78;29.52;97007.19;8348742;28;20266;-64
2022/02/14 12:07:55;;;;;;;11.13;3.67;;;;;;;13.32;28.08;97006.09;8349074;28;20534;-65
2022/02/14 12:11:58;;;;;;;6.30;3.13;;;;;;;13.73;27.71;96989.28;8348632;28;20546;-65
2022/02/14 12:20:36;;;;;;;3.63;2.73;;;;;;;13.77;26.98;96977.72;8348113;28;20266;-66
2022/02/14 12:24:39;;;;;;;6.20;3.10;;;;;;;13.55;27.35;96968.03;8347493;28;20258;-64
2022/02/14 12:28:44;;;;;;;8.17;3.23;;;;;;;13.29;27.77;96964.69;8348013;28;20223;-65
2022/02/14 12:32:50;;;;;;;4.33;2.93;;;;;;;13.26;28.46;96975.28;8347295;28;20224;-66
2022/02/14 12:36:55;;;;;;;5.23;2.80;;;;;;;12.80;28.75;96968.13;8347370;28;20524;-66
2022/02/14 12:41:00;;;;;;;4.60;2.83;;;;;;;12.77;28.86;96966.56;8346662;28;20234;-65
2022/02/14 12:45:03;;;;;;;9.63;3.03;;;;;;;12.69;29.33;96954.09;8344606;28;20231;-65
2022/02/14 12:49:09;;;;;;;7.43;3.20;;;;;;;12.79;29.10;96961.25;8346503;28;20239;-66
2022/02/14 12:53:11;;;;;;;9.17;2.80;;;;;;;12.74;29.00;96956.38;8347305;28;20228;-65
2022/02/14 12:57:14;;;;;;;5.23;3.47;;;;;;;12.78;28.83;96950.03;8347311;28;20596;-64
2022/02/14 13:01:19;;;;;;;6.50;3.30;;;;;;;12.47;29.46;96943.50;8347457;28;20228;-64
2022/02/14 13:05:24;;;;;;;7.13;3.20;;;;;;;13.74;28.71;96938.06;8347491;28;20232;-64
2022/02/14 13:09:30;;;;;;;5.03;3.07;;;;;;;13.93;28.86;96929.75;8347394;28;20232;-65
2022/02/14 13:13:39;;;;;;;4.77;2.80;;;;;;;13.76;28.91;96931.00;8347073;28;20282;-65
2022/02/14 13:17:42;;;;;;;5.63;2.87;;;;;;;13.44;29.14;96928.97;8347188;28;20232;-64
2022/02/14 13:21:46;;;;;;;7.37;3.40;;;;;;;13.34;29.72;96931.41;8347203;28;20244;-64
2022/02/14 13:25:51;;;;;;;5.27;2.67;;;;;;;13.33;29.61;96928.91;8347038;28;20244;-64
2022/02/14 13:29:56;;;;;;;7.27;2.90;;;;;;;13.23;29.28;96934.75;8347224;28;20228;-64
2022/02/14 13:34:01;;;;;;;5.60;2.70;;;;;;;13.05;29.34;96925.66;8349871;28;20424;-65
2022/02/14 13:38:06;;;;;;;5.37;2.90;;;;;;;13.11;29.82;96920.84;8353448;28;20228;-64
2022/02/14 13:42:19;;;;;;;7.57;3.23;;;;;;;12.81;29.73;96928.19;8353209;28;20228;-64
2022/02/14 13:46:27;;;;;;;3.90;2.70;;;;;;;12.79;29.93;96920.50;8352355;28;20239;-64
2022/02/14 13:50:30;;;;;;;5.33;2.97;;;;;;;12.75;29.93;96921.66;8350149;28;20228;-64
2022/02/14 13:54:34;;;;;;;9.93;3.43;;;;;;;12.57;30.78;96921.19;8351869;28;20220;-64
2022/02/14 13:58:39;;;;;;;4.03;3.20;;;;;;;12.61;30.71;96921.81;8350753;28;20539;-64
2022/02/14 14:02:57;;;;;;;6.40;3.53;;;;;;;12.54;31.00;96930.94;8352108;28;20247;-64
2022/02/14 14:07:08;;;;;;;9.10;3.40;;;;;;;12.61;31.15;96924.41;8350697;28;20248;-64
2022/02/14 14:11:25;;;;;;;8.33;3.50;;;;;;;12.27;31.49;96927.53;8349330;28;20228;-64
2022/02/14 14:15:28;;;;;;;8.57;3.60;;;;;;;12.31;31.50;96928.97;8348760;28;20240;-64
2022/02/14 14:19:32;;;;;;;10.03;3.90;;;;;;;12.42;31.31;96923.06;8349273;28;20216;-64
2022/02/14 14:23:36;;;;;;;8.47;3.83;;;;;;;12.35;31.63;96921.00;8351129;28;20415;-64
2022/02/14 14:27:40;;;;;;;6.20;3.53;;;;;;;12.13;32.48;96925.88;8350830;28;20239;-64
2022/02/14 14:31:44;;;;;;;6.43;3.50;;;;;;;12.44;32.00;96925.56;8351549;28;20236;-64
2022/02/14 14:35:47;;;;;;;7.00;3.60;;;;;;;12.30;32.50;96916.94;8351533;28;20306;-64
2022/02/14 14:39:50;;;;;;;7.97;3.70;;;;;;;12.42;32.65;96920.47;8351867;28;20236;-64
2022/02/14 14:43:54;;;;;;;4.90;3.53;;;;;;;12.50;32.47;96918.16;8350819;28;20554;-64
2022/02/14 14:47:59;;;;;;;6.50;3.90;;;;;;;12.46;32.68;96918.50;8351178;28;20290;-65
2022/02/14 14:52:02;;;;;;;6.33;3.30;;;;;;;12.29;32.78;96923.06;8351476;28;20235;-64
2022/02/14 14:56:05;;;;;;;8.40;3.47;;;;;;;12.00;33.17;96919.03;8351383;28;20334;-64
2022/02/14 15:00:12;;;;;;;7.77;3.50;;;;;;;12.01;33.53;96916.31;8318373;28;20229;-64
2022/02/14 15:04:16;;;;;;;7.63;3.60;;;;;;;11.91;33.56;96917.84;8318438;28;20237;-64
2022/02/14 15:08:19;;;;;;;8.00;3.70;;;;;;;12.05;33.73;96924.72;8318011;28;20236;-65
2022/02/14 15:12:22;;;;;;;10.17;3.80;;;;;;;12.03;33.26;96924.84;8318099;28;20232;-64
2022/02/14 15:16:27;;;;;;;7.70;4.03;;;;;;;12.01;33.59;96916.31;8317738;28;20241;-65
2022/02/14 15:20:29;;;;;;;9.60;4.07;;;;;;;12.13;33.62;96919.84;8317803;28;20232;-64
2022/02/14 15:24:33;;;;;;;7.67;4.13;;;;;;;11.95;33.93;96918.50;8316993;28;20232;-64
2022/02/14 15:28:36;;;;;;;6.67;3.93;;;;;;;12.09;33.88;96915.81;8317368;28;20232;-64
2022/02/14 15:32:41;;;;;;;10.27;4.20;;;;;;;11.66;34.93;96911.66;8316878;28;20238;-64
2022/02/14 15:36:44;;;;;;;10.53;4.30;;;;;;;11.66;35.00;96911.66;8317396;28;20236;-64
2022/02/14 15:40:47;;;;;;;7.50;4.30;;;;;;;11.79;35.06;96910.88;8335481;28;20239;-64
2022/02/14 15:44:50;;;;;;;9.07;4.50;;;;;;;11.45;35.60;96913.88;8349245;28;20234;-64
2022/02/14 15:48:54;;;;;;;7.20;4.47;;;;;;;11.73;35.46;96922.47;8348410;28;20238;-64
2022/02/14 15:52:57;;;;;;;15.90;4.80;;;;;;;11.72;34.96;96923.41;8348530;28;20573;-65
2022/02/14 15:57:01;;;;;;;6.60;4.30;;;;;;;11.37;36.04;96923.09;8347981;28;20238;-64
2022/02/14 16:01:04;;;;;;;9.00;5.37;;;;;;;11.44;35.85;96925.19;8347997;28;20240;-64
2022/02/14 16:05:09;;;;;;;9.87;5.17;;;;;;;11.12;36.59;96927.25;8346101;28;20228;-65
2022/02/14 16:09:13;;;;;;;14.00;5.17;;;;;;;11.21;36.58;96931.00;8348783;28;20457;-64
2022/02/14 16:13:16;;;;;;;10.53;5.07;;;;;;;11.18;36.39;96931.22;8348663;28;20232;-64
2022/02/14 16:17:19;;;;;;;9.93;5.00;;;;;;;11.24;36.31;96936.00;8348548;28;20239;-64
2022/02/14 16:21:24;;;;;;;9.73;5.30;;;;;;;11.27;36.15;96943.56;8348252;28;20228;-64
2022/02/14 16:25:31;;;;;;;8.03;5.13;;;;;;;11.14;36.25;96951.31;8347528;28;20236;-63
2022/02/14 16:29:36;;;;;;;9.00;4.97;;;;;;;11.06;36.44;96959.56;8346509;28;20228;-64
2022/02/14 16:33:39;;;;;;;8.13;5.10;;;;;;;11.22;36.33;96959.41;8347870;28;20239;-64
2022/02/14 16:37:43;;;;;;;10.83;5.07;;;;;;;10.98;36.89;96956.59;8347848;28;20236;-64
2022/02/14 16:41:46;;;;;;;8.23;5.97;;;;;;;11.30;36.52;96953.75;8348110;28;20228;-64
2022/02/14 16:45:50;;;;;;;15.13;9.93;;;;;;;11.25;36.37;96960.97;8348006;28;20557;-64
2022/02/14 16:49:59;;;;;;;11.83;9.70;;;;;;;11.24;36.32;96965.34;8347544;28;20235;-64
2022/02/14 16:54:04;;;;;;;19.30;13.93;;;;;;;11.23;36.55;96974.06;8347597;28;20243;-64
2022/02/14 16:58:07;;;;;;;55.43;38.60;;;;;;;11.15;36.75;96977.09;8346423;28;20235;-65
2022/02/14 17:02:11;;;;;;;26.23;18.30;;;;;;;11.02;37.26;96976.19;8346242;28;20224;-64
2022/02/14 17:06:14;;;;;;;20.07;10.13;;;;;;;11.00;37.30;96969.47;8346185;28;20235;-64
2022/02/14 17:10:19;;;;;;;26.40;16.57;;;;;;;11.24;37.37;96988.66;8351713;28;20230;-64
2022/02/14 17:14:22;;;;;;;15.10;8.80;;;;;;;11.11;37.20;96988.59;8352512;28;20228;-64
2022/02/14 17:18:26;;;;;;;16.27;9.13;;;;;;;10.79;38.09;97000.09;8352043;28;20231;-64
2022/02/14 17:22:29;;;;;;;10.27;7.70;;;;;;;11.03;37.34;96998.59;8352157;28;20232;-63
2022/02/14 17:26:34;;;;;;;12.27;7.23;;;;;;;10.99;37.72;97007.50;8351792;28;20228;-64
2022/02/14 17:30:39;;;;;;;15.10;7.80;;;;;;;10.68;38.58;97003.31;8352705;28;20242;-64
2022/02/14 17:34:42;;;;;;;13.10;7.57;;;;;;;10.74;38.66;97001.22;8352626;28;20224;-64
2022/02/14 17:38:47;;;;;;;9.00;6.40;;;;;;;10.78;39.03;96998.44;8352760;28;20224;-64
2022/02/14 17:42:51;;;;;;;14.83;6.80;;;;;;;11.08;38.40;97006.06;8352267;28;20228;-64
2022/02/14 17:46:54;;;;;;;11.23;6.67;;;;;;;10.78;38.71;96998.44;8352695;28;20232;-64
2022/02/14 17:50:57;;;;;;;12.50;7.70;;;;;;;10.75;38.17;97009.81;8353315;28;20522;-65
2022/02/14 17:55:01;;;;;;;12.67;7.50;;;;;;;10.95;37.97;97017.22;8352741;28;20232;-64
2022/02/14 17:59:05;;;;;;;14.73;6.03;;;;;;;10.66;38.50;97000.00;8352666;28;20235;-70
2022/02/14 18:03:08;;;;;;;10.87;6.80;;;;;;;10.28;38.64;96995.31;8352713;28;20232;-64
2022/02/14 18:07:11;;;;;;;11.93;6.53;;;;;;;10.71;38.10;97018.69;8351456;28;20425;-64
2022/02/14 18:11:14;;;;;;;12.73;8.30;;;;;;;10.88;36.81;97036.63;8352312;28;20228;-64
2022/02/14 18:15:20;;;;;;;13.37;6.90;;;;;;;10.64;37.16;97028.59;8352448;28;20396;-64
2022/02/14 18:19:23;;;;;;;12.27;6.73;;;;;;;10.30;38.16;97030.56;8352442;28;20506;-64
2022/02/14 18:23:27;;;;;;;14.00;7.27;;;;;;;10.46;38.35;97017.56;8351912;28;20239;-64
2022/02/14 18:27:33;;;;;;;12.87;7.43;;;;;;;10.36;38.08;97044.91;8351516;28;20539;-65
2022/02/14 18:31:38;;;;;;;13.03;8.37;;;;;;;10.54;37.92;97054.16;8351933;28;20236;-64
2022/02/14 18:35:41;;;;;;;12.20;8.40;;;;;;;10.93;37.26;97059.69;8352211;28;20254;-65
2022/02/14 18:39:43;;;;;;;11.60;7.73;;;;;;;10.98;36.93;97064.56;8350807;28;20236;-64
2022/02/14 18:44:07;;;;;;;12.40;7.23;;;;;;;11.11;36.97;97062.91;8351528;28;20239;-65
2022/02/14 18:48:11;;;;;;;11.60;7.67;;;;;;;11.18;36.89;97071.97;8351554;28;20232;-64
2022/02/14 18:52:14;;;;;;;10.97;7.00;;;;;;;11.16;37.24;97068.66;8345984;28;20438;-64
2022/02/14 18:56:17;;;;;;;11.53;7.10;;;;;;;11.15;37.41;97079.94;8344357;28;20238;-64
2022/02/14 19:00:21;;;;;;;11.70;8.20;;;;;;;11.11;37.51;97074.09;8345163;28;20513;-64
2022/02/14 19:04:25;;;;;;;13.63;8.03;;;;;;;11.28;37.45;97078.25;8350477;28;20223;-64
2022/02/14 19:08:29;;;;;;;22.57;9.40;;;;;;;12.21;43.61;97075.09;8360228;28;20240;-65
2022/02/14 19:12:33;;;;;;;10.47;7.73;;;;;;;11.94;37.46;97078.53;8349926;28;20236;-65
2022/02/14 19:16:37;;;;;;;16.00;8.57;;;;;;;11.67;37.34;97092.28;8350006;28;20519;-67
2022/02/14 19:20:44;;;;;;;13.43;8.97;;;;;;;11.69;37.70;97097.34;8346920;28;20323;-68
2022/02/14 19:24:47;;;;;;;12.63;6.30;;;;;;;11.53;37.40;97100.91;8344665;28;20231;-67
2022/02/14 19:28:50;;;;;;;11.73;6.60;;;;;;;11.65;37.89;97112.28;8348454;28;20228;-67